createdAt,value
2023-04-06T00:00:23.369Z,100.00
2023-04-06T00:02:54.540Z,100.00
2023-04-06T00:05:25.439Z,100.00
2023-04-06T00:07:56.537Z,100.00
2023-04-06T00:10:47.613Z,100.00
2023-04-06T00:13:18.098Z,100.00
2023-04-06T00:15:48.410Z,100.00
2023-04-06T00:18:18.899Z,100.00
2023-04-06T00:20:49.457Z,100.00
2023-04-06T00:23:19.781Z,100.00
2023-04-06T00:25:50.738Z,100.00
2023-04-06T00:28:21.911Z,100.00
2023-04-06T00:30:56.708Z,100.00
2023-04-06T00:33:27.662Z,100.00
2023-04-06T00:35:58.041Z,100.00
2023-04-06T00:38:28.560Z,100.00
2023-04-06T00:40:59.853Z,100.00
2023-04-06T00:43:30.479Z,100.00
2023-04-06T00:46:00.933Z,100.00
2023-04-06T00:48:32.443Z,100.00
2023-04-06T00:51:03.188Z,100.00
2023-04-06T00:53:33.646Z,100.00
2023-04-06T00:56:04.195Z,100.00
2023-04-06T00:58:35.342Z,100.00
2023-04-06T01:01:06.723Z,100.00
2023-04-06T01:03:38.480Z,100.00
2023-04-06T01:06:09.459Z,100.00
2023-04-06T01:08:40.439Z,100.00
2023-04-06T01:11:10.880Z,100.00
2023-04-06T01:13:41.197Z,100.00
2023-04-06T01:16:11.900Z,100.00
2023-04-06T01:18:42.588Z,100.00
2023-04-06T01:21:13.045Z,100.00
2023-04-06T01:23:47.372Z,100.00
2023-04-06T01:26:17.775Z,100.00
2023-04-06T01:28:48.203Z,100.00
2023-04-06T01:31:18.796Z,100.00
2023-04-06T01:33:49.610Z,100.00
2023-04-06T01:36:20.530Z,100.00
2023-04-06T01:38:51.560Z,100.00
2023-04-06T01:41:22.032Z,100.00
2023-04-06T01:43:53.073Z,100.00
2023-04-06T01:46:23.461Z,100.00
2023-04-06T01:48:54.580Z,100.00
2023-04-06T01:51:25.564Z,100.00
2023-04-06T01:53:55.911Z,100.00
2023-04-06T01:56:27.157Z,100.00
2023-04-06T01:58:57.599Z,100.00
2023-04-06T02:01:27.999Z,100.00
2023-04-06T02:03:59.447Z,100.00
2023-04-06T02:06:29.822Z,100.00
2023-04-06T02:09:02.050Z,100.00
2023-04-06T02:11:32.864Z,100.00
2023-04-06T02:14:03.926Z,100.00
2023-04-06T02:16:34.497Z,100.00
2023-04-06T02:19:04.812Z,100.00
2023-04-06T02:21:37.449Z,100.00
2023-04-06T02:24:09.182Z,100.00
2023-04-06T02:26:39.975Z,100.00
2023-04-06T02:29:11.076Z,100.00
2023-04-06T02:31:42.338Z,100.00
2023-04-06T02:34:12.752Z,100.00
2023-04-06T02:36:46.282Z,100.00
2023-04-06T02:39:16.877Z,100.00
2023-04-06T02:41:47.361Z,100.00
2023-04-06T02:44:17.680Z,100.00
2023-04-06T02:46:48.708Z,100.00
2023-04-06T02:49:19.800Z,100.00
2023-04-06T02:51:50.769Z,100.00
2023-04-06T02:54:21.222Z,100.00
2023-04-06T02:56:51.607Z,100.00
2023-04-06T02:59:22.429Z,100.00
2023-04-06T03:01:53.666Z,100.00
2023-04-06T03:04:24.288Z,100.00
2023-04-06T03:06:55.868Z,100.00
2023-04-06T03:09:26.348Z,100.00
2023-04-06T03:11:56.790Z,100.00
2023-04-06T03:14:28.565Z,100.00
2023-04-06T03:17:01.945Z,100.00
2023-04-06T03:19:32.792Z,100.00
2023-04-06T03:22:03.236Z,100.00
2023-04-06T03:24:36.956Z,100.00
2023-04-06T03:27:10.474Z,100.00
2023-04-06T03:29:41.601Z,100.00
2023-04-06T03:32:12.522Z,100.00
2023-04-06T03:34:43.660Z,100.00
2023-04-06T03:37:15.045Z,100.00
2023-04-06T03:39:45.512Z,100.00
2023-04-06T03:42:15.800Z,100.00
2023-04-06T03:44:47.295Z,100.00
2023-04-06T03:47:17.681Z,100.00
2023-04-06T03:49:48.709Z,100.00
2023-04-06T03:52:19.269Z,100.00
2023-04-06T03:54:49.766Z,100.00
2023-04-06T03:57:20.301Z,100.00
2023-04-06T03:59:51.374Z,100.00
2023-04-06T04:02:22.414Z,100.00
2023-04-06T04:04:53.898Z,100.00
2023-04-06T04:07:24.771Z,100.00
2023-04-06T04:09:55.373Z,100.00
2023-04-06T04:12:25.844Z,100.00
2023-04-06T04:14:56.909Z,100.00
2023-04-06T04:17:27.287Z,100.00
2023-04-06T04:19:58.178Z,100.00
2023-04-06T04:22:28.604Z,100.00
2023-04-06T04:25:02.471Z,100.00
2023-04-06T04:27:33.628Z,100.00
2023-04-06T04:30:06.167Z,100.00
2023-04-06T04:32:37.304Z,100.00
2023-04-06T04:35:09.682Z,100.00
2023-04-06T04:37:42.978Z,100.00
2023-04-06T04:40:13.802Z,100.00
2023-04-06T04:42:44.360Z,100.00
2023-04-06T04:45:17.971Z,100.00
2023-04-06T04:47:48.532Z,100.00
2023-04-06T04:50:20.027Z,100.00
2023-04-06T04:52:50.984Z,100.00
2023-04-06T04:55:21.564Z,100.00
2023-04-06T04:57:52.472Z,100.00
2023-04-06T05:00:25.796Z,100.00
2023-04-06T05:02:56.495Z,100.00
2023-04-06T05:05:35.527Z,100.00
2023-04-06T05:08:06.550Z,100.00
2023-04-06T05:10:38.460Z,100.00
2023-04-06T05:13:10.146Z,100.00
2023-04-06T05:15:40.825Z,100.00
2023-04-06T05:18:12.183Z,100.00
2023-04-06T05:20:43.835Z,100.00
2023-04-06T05:23:14.148Z,100.00
2023-04-06T05:25:47.834Z,100.00
2023-04-06T05:28:19.533Z,100.00
2023-04-06T05:30:51.015Z,100.00
2023-04-06T05:33:25.461Z,100.00
2023-04-06T05:35:59.942Z,100.00
2023-04-06T05:38:33.857Z,100.00
2023-04-06T05:41:05.773Z,100.00
2023-04-06T05:43:36.822Z,100.00
2023-04-06T05:46:10.074Z,100.00
2023-04-06T05:48:40.839Z,100.00
2023-04-06T05:51:11.248Z,100.00
2023-04-06T05:53:43.162Z,100.00
2023-04-06T05:56:14.667Z,100.00
2023-04-06T05:58:47.060Z,100.00
2023-04-06T06:01:19.524Z,100.00
2023-04-06T06:03:50.627Z,100.00
2023-04-06T06:06:21.203Z,100.00
2023-04-06T06:08:51.890Z,100.00
2023-04-06T06:11:24.811Z,100.00
2023-04-06T06:14:15.328Z,100.00
2023-04-06T06:16:45.898Z,100.00
2023-04-06T06:19:17.220Z,100.00
2023-04-06T06:21:49.634Z,100.00
2023-04-06T06:24:20.752Z,100.00
2023-04-06T06:26:54.028Z,100.00
2023-04-06T06:29:25.296Z,100.00
2023-04-06T06:31:56.856Z,100.00
2023-04-06T06:34:27.456Z,100.00
2023-04-06T06:36:58.399Z,100.00
2023-04-06T06:39:29.394Z,100.00
2023-04-06T06:41:59.845Z,100.00
2023-04-06T06:44:30.660Z,100.00
2023-04-06T06:47:04.222Z,100.00
2023-04-06T06:49:35.329Z,100.00
2023-04-06T06:52:05.780Z,100.00
2023-04-06T06:54:37.189Z,100.00
2023-04-06T06:57:07.818Z,100.00
2023-04-06T06:59:40.089Z,100.00
2023-04-06T07:02:13.442Z,100.00
2023-04-06T07:04:44.895Z,100.00
2023-04-06T07:07:16.446Z,100.00
2023-04-06T07:09:50.914Z,100.00
2023-04-06T07:12:21.461Z,100.00
2023-04-06T07:14:52.004Z,100.00
2023-04-06T07:17:24.682Z,100.00
2023-04-06T07:19:57.777Z,100.00
2023-04-06T07:22:31.733Z,100.00
2023-04-06T07:25:03.821Z,100.00
2023-04-06T07:27:37.737Z,100.00
2023-04-06T07:30:13.004Z,100.00
2023-04-06T07:32:44.283Z,100.00
2023-04-06T07:35:48.223Z,100.00
2023-04-06T07:38:00.881Z,100.00
2023-04-06T07:40:31.934Z,100.00
2023-04-06T07:43:04.580Z,100.00
2023-04-06T07:45:36.697Z,100.00
2023-04-06T07:48:07.129Z,100.00
2023-04-06T07:50:41.079Z,100.00
2023-04-06T07:53:15.132Z,100.00
2023-04-06T07:55:53.187Z,100.00
2023-04-06T07:58:25.449Z,100.00
2023-04-06T08:00:56.650Z,100.00
2023-04-06T08:03:29.756Z,100.00
2023-04-06T08:06:02.234Z,100.00
2023-04-06T08:08:34.006Z,100.00
2023-04-06T08:11:04.410Z,100.00
2023-04-06T08:13:36.111Z,100.00
2023-04-06T08:16:16.483Z,100.00
2023-04-06T08:18:47.489Z,99.65
2023-04-06T08:21:19.423Z,99.65
2023-04-06T08:23:50.446Z,99.96
2023-04-06T08:26:24.119Z,100.00
2023-04-06T08:28:54.717Z,100.00
2023-04-06T08:31:27.945Z,100.00
2023-04-06T08:33:59.449Z,100.00
2023-04-06T08:36:30.014Z,100.00
2023-04-06T08:39:01.886Z,100.00
2023-04-06T08:41:33.312Z,100.00
2023-04-06T08:44:04.824Z,100.00
2023-04-06T08:46:37.777Z,100.00
2023-04-06T08:49:12.746Z,100.00
2023-04-06T08:51:45.765Z,100.00
2023-04-06T08:54:19.120Z,100.00
2023-04-06T08:56:50.817Z,100.00
2023-04-06T08:59:25.097Z,100.00
2023-04-06T09:01:57.066Z,100.00
2023-04-06T09:04:45.794Z,100.00
2023-04-06T09:07:17.189Z,99.78
2023-04-06T09:09:48.099Z,100.00
2023-04-06T09:12:32.615Z,99.42
2023-04-06T09:15:03.946Z,98.78
2023-04-06T09:17:35.211Z,98.57
2023-04-06T09:23:07.968Z,97.67
2023-04-06T09:25:38.599Z,98.41
2023-04-06T09:28:09.884Z,98.60
2023-04-06T09:30:43.278Z,98.38
2023-04-06T09:33:14.311Z,98.38
2023-04-06T09:35:48.246Z,99.05
2023-04-06T09:38:25.822Z,98.66
2023-04-06T09:41:01.219Z,97.75
2023-04-06T09:43:48.375Z,97.27
2023-04-06T09:46:20.948Z,96.28
2023-04-06T09:48:52.690Z,94.23
2023-04-06T09:51:25.534Z,92.19
2023-04-06T09:54:00.730Z,92.47
2023-04-06T09:56:35.046Z,92.80
2023-04-06T09:59:08.888Z,92.30
2023-04-06T10:01:40.672Z,92.05
2023-04-06T10:04:35.554Z,92.26
2023-04-06T10:07:08.072Z,92.26
2023-04-06T10:09:42.297Z,91.61
2023-04-06T10:12:14.738Z,91.61
2023-04-06T10:14:46.100Z,92.50
2023-04-06T10:17:16.553Z,92.50
2023-04-06T10:20:03.785Z,92.83
2023-04-06T10:22:55.866Z,92.83
2023-04-06T10:25:31.253Z,92.53
2023-04-06T10:28:10.500Z,91.84
2023-04-06T10:30:44.737Z,92.89
2023-04-06T10:33:20.548Z,93.23
2023-04-06T10:35:51.134Z,93.31
2023-04-06T10:38:22.039Z,93.66
2023-04-06T10:40:58.012Z,94.62
2023-04-06T10:43:30.208Z,94.82
2023-04-06T10:46:02.846Z,94.43
2023-04-06T10:48:42.108Z,94.43
2023-04-06T10:51:16.868Z,95.20
2023-04-06T10:53:49.556Z,94.34
2023-04-06T10:56:40.809Z,93.69
2023-04-06T10:59:12.039Z,93.69
2023-04-06T11:01:46.164Z,93.10
2023-04-06T11:04:21.771Z,93.79
2023-04-06T11:06:55.718Z,93.79
2023-04-06T11:09:28.856Z,94.16
2023-04-06T11:11:59.322Z,93.66
2023-04-06T11:14:30.420Z,91.78
2023-04-06T11:17:07.424Z,90.97
2023-04-06T11:19:42.692Z,90.97
2023-04-06T11:22:19.177Z,91.54
2023-04-06T11:24:54.458Z,92.01
2023-04-06T11:27:25.539Z,92.31
2023-04-06T11:29:56.663Z,91.36
2023-04-06T11:32:29.120Z,89.69
2023-04-06T11:35:01.408Z,88.81
2023-04-06T11:37:32.113Z,88.51
2023-04-06T11:40:04.409Z,89.02
2023-04-06T11:42:47.301Z,90.23
2023-04-06T11:45:17.785Z,91.12
2023-04-06T11:47:52.433Z,91.73
2023-04-06T11:50:23.502Z,91.73
2023-04-06T11:53:02.371Z,90.73
2023-04-06T11:55:36.174Z,89.92
2023-04-06T11:58:06.630Z,89.92
2023-04-06T12:00:39.455Z,88.21
2023-04-06T12:03:10.634Z,87.95
2023-04-06T12:05:42.029Z,88.40
2023-04-06T12:08:12.464Z,88.41
2023-04-06T12:10:42.960Z,88.41
2023-04-06T12:13:14.020Z,88.33
2023-04-06T12:15:44.568Z,88.63
2023-04-06T12:18:15.454Z,88.79
2023-04-06T12:20:46.612Z,88.41
2023-04-06T12:23:17.520Z,88.21
2023-04-06T12:25:48.087Z,87.76
2023-04-06T12:28:20.160Z,88.60
2023-04-06T12:30:50.872Z,88.60
2023-04-06T12:33:22.314Z,87.32
2023-04-06T12:35:52.916Z,86.57
2023-04-06T12:38:24.784Z,86.57
2023-04-06T12:40:56.854Z,86.53
2023-04-06T12:43:37.339Z,87.21
2023-04-06T12:46:08.271Z,86.80
2023-04-06T12:48:39.962Z,85.65
2023-04-06T12:51:19.556Z,85.65
2023-04-06T12:53:53.564Z,82.97
2023-04-06T12:56:23.650Z,83.40
2023-04-06T12:58:56.077Z,84.72
2023-04-06T13:01:28.089Z,85.49
2023-04-06T13:03:59.836Z,86.43
2023-04-06T13:06:30.820Z,86.68
2023-04-06T13:09:01.674Z,86.31
2023-04-06T13:11:32.254Z,86.50
2023-04-06T13:14:03.382Z,86.95
2023-04-06T13:16:34.420Z,87.41
2023-04-06T13:19:05.028Z,87.08
2023-04-06T13:21:37.184Z,85.71
2023-04-06T13:24:09.018Z,86.13
2023-04-06T13:26:41.409Z,85.83
2023-04-06T13:29:11.875Z,85.63
2023-04-06T13:31:42.416Z,85.79
2023-04-06T13:34:12.831Z,87.35
2023-04-06T13:36:43.352Z,86.31
2023-04-06T13:39:14.351Z,86.48
2023-04-06T13:41:46.234Z,87.38
2023-04-06T13:44:16.672Z,86.28
2023-04-06T13:46:47.061Z,85.46
2023-04-06T13:49:17.622Z,85.47
2023-04-06T13:51:48.618Z,84.27
2023-04-06T13:54:19.174Z,85.21
2023-04-06T13:56:49.739Z,83.74
2023-04-06T13:59:20.810Z,84.24
2023-04-06T14:01:51.454Z,84.39
2023-04-06T14:04:22.184Z,84.39
2023-04-06T14:06:53.254Z,85.49
2023-04-06T14:09:24.218Z,85.25
2023-04-06T14:11:55.779Z,85.49
2023-04-06T14:14:26.667Z,85.23
2023-04-06T14:16:57.846Z,84.38
2023-04-06T14:19:28.269Z,84.80
2023-04-06T14:21:58.716Z,84.65
2023-04-06T14:24:29.409Z,84.26
2023-04-06T14:27:00.453Z,85.36
2023-04-06T14:29:31.337Z,85.36
2023-04-06T14:32:01.924Z,83.74
2023-04-06T14:34:32.572Z,82.40
2023-04-06T14:37:04.656Z,82.40
2023-04-06T14:39:35.291Z,83.61
2023-04-06T14:42:06.282Z,83.46
2023-04-06T14:44:37.077Z,84.04
2023-04-06T14:47:10.357Z,84.23
2023-04-06T14:49:41.880Z,83.89
2023-04-06T14:52:14.461Z,84.35
2023-04-06T14:54:45.904Z,82.87
2023-04-06T14:57:16.369Z,82.75
2023-04-06T14:59:47.150Z,82.71
2023-04-06T15:02:22.359Z,82.92
2023-04-06T15:04:56.272Z,81.32
2023-04-06T15:07:28.166Z,79.80
2023-04-06T15:09:58.853Z,79.80
2023-04-06T15:12:29.731Z,80.93
2023-04-06T15:15:01.481Z,80.90
2023-04-06T15:17:32.325Z,80.76
2023-04-06T15:20:03.543Z,80.01
2023-04-06T15:22:34.572Z,80.89
2023-04-06T15:25:06.207Z,80.05
2023-04-06T15:27:37.880Z,78.93
2023-04-06T15:30:08.842Z,78.61
2023-04-06T15:32:40.057Z,78.17
2023-04-06T15:35:12.343Z,77.65
2023-04-06T15:37:43.384Z,78.53
2023-04-06T15:40:14.670Z,78.89
2023-04-06T15:42:45.356Z,78.89
2023-04-06T15:45:15.892Z,78.69
2023-04-06T15:47:47.086Z,78.51
2023-04-06T15:50:18.129Z,79.27
2023-04-06T15:52:49.219Z,80.17
2023-04-06T15:55:19.689Z,79.73
2023-04-06T15:57:50.322Z,78.72
2023-04-06T16:00:23.257Z,78.77
2023-04-06T16:02:55.699Z,79.67
2023-04-06T16:05:28.622Z,79.67
2023-04-06T16:07:58.931Z,79.14
2023-04-06T16:10:29.908Z,79.14
2023-04-06T16:13:00.441Z,79.01
2023-04-06T16:15:32.282Z,79.39
2023-04-06T16:18:03.184Z,79.06
2023-04-06T16:20:35.098Z,79.77
2023-04-06T16:23:06.357Z,79.21
2023-04-06T16:25:38.265Z,79.37
2023-04-06T16:28:09.941Z,79.51
2023-04-06T16:30:42.602Z,79.68
2023-04-06T16:33:13.559Z,79.32
2023-04-06T16:35:46.571Z,78.78
2023-04-06T16:38:17.939Z,78.79
2023-04-06T16:40:52.272Z,79.12
2023-04-06T16:43:24.294Z,79.00
2023-04-06T16:45:56.808Z,79.09
2023-04-06T16:48:28.552Z,78.95
2023-04-06T16:50:59.273Z,78.74
2023-04-06T16:53:29.845Z,79.26
2023-04-06T16:56:01.984Z,79.26
2023-04-06T16:58:33.771Z,79.34
2023-04-06T17:01:05.147Z,79.55
2023-04-06T17:06:28.910Z,79.23
2023-04-06T17:09:02.684Z,79.23
2023-04-06T17:11:46.056Z,79.63
2023-04-06T17:14:10.434Z,79.36
2023-04-06T17:16:45.539Z,79.48
2023-04-06T17:19:16.297Z,79.48
2023-04-06T17:21:48.562Z,79.48
2023-04-06T17:24:20.210Z,79.75
2023-04-06T17:26:51.102Z,80.64
2023-04-06T17:29:23.292Z,80.83
2023-04-06T17:31:54.655Z,81.38
2023-04-06T17:34:25.920Z,81.52
2023-04-06T17:37:01.778Z,81.46
2023-04-06T17:39:34.282Z,81.62
2023-04-06T17:42:05.299Z,81.72
2023-04-06T17:44:37.265Z,81.68
2023-04-06T17:47:12.623Z,81.91
2023-04-06T17:49:44.026Z,81.91
2023-04-06T17:52:14.747Z,82.12
2023-04-06T17:54:45.298Z,82.04
2023-04-06T17:57:16.417Z,82.14
2023-04-06T17:59:47.412Z,82.29
2023-04-06T18:02:20.235Z,82.28
2023-04-06T18:04:59.063Z,82.28
2023-04-06T18:07:30.081Z,81.97
2023-04-06T18:10:20.662Z,82.17
2023-04-06T18:13:13.579Z,81.92
2023-04-06T18:16:10.245Z,82.01
2023-04-06T18:18:42.752Z,82.06
2023-04-06T18:21:19.098Z,82.06
2023-04-06T18:23:58.519Z,81.91
2023-04-06T18:26:28.309Z,81.91
2023-04-06T18:29:07.452Z,81.75
2023-04-06T18:31:43.540Z,81.89
2023-04-06T18:34:15.970Z,81.89
2023-04-06T18:36:47.565Z,81.69
2023-04-06T18:39:32.378Z,81.69
2023-04-06T18:42:07.539Z,81.36
2023-04-06T18:44:38.501Z,81.96
2023-04-06T18:47:14.064Z,82.12
2023-04-06T18:49:48.350Z,82.52
2023-04-06T18:52:23.181Z,82.31
2023-04-06T18:55:00.231Z,82.01
2023-04-06T18:57:31.481Z,82.01
2023-04-06T19:00:06.398Z,81.67
2023-04-06T19:02:39.782Z,81.22
2023-04-06T19:05:15.921Z,81.38
2023-04-06T19:07:53.647Z,81.20
2023-04-06T19:10:30.410Z,81.13
2023-04-06T19:16:06.655Z,81.41
2023-04-06T19:21:50.567Z,81.38
2023-04-06T19:24:45.004Z,80.99
2023-04-06T19:27:22.904Z,81.39
2023-04-06T19:29:56.054Z,81.39
2023-04-06T19:32:32.937Z,82.10
2023-04-06T19:35:08.354Z,82.11
2023-04-06T19:37:39.832Z,82.38
2023-04-06T19:40:18.360Z,82.40
2023-04-06T19:43:14.805Z,83.48
2023-04-06T19:45:36.350Z,82.88
2023-04-06T19:48:12.379Z,82.66
2023-04-06T19:51:23.503Z,82.66
2023-04-06T19:53:59.018Z,83.27
2023-04-06T19:56:31.236Z,83.58
2023-04-06T19:59:01.998Z,83.76
2023-04-06T20:01:32.757Z,83.42
2023-04-06T20:04:03.602Z,83.42
2023-04-06T20:06:34.578Z,83.75
2023-04-06T20:09:09.386Z,83.74
2023-04-06T20:11:40.930Z,83.67
2023-04-06T20:14:12.650Z,84.28
2023-04-06T20:16:43.264Z,84.43
2023-04-06T20:19:45.790Z,83.93
2023-04-06T20:22:16.618Z,83.81
2023-04-06T20:24:47.765Z,84.10
2023-04-06T20:27:18.660Z,84.10
2023-04-06T20:29:49.319Z,84.34
2023-04-06T20:32:23.776Z,84.67
2023-04-06T20:34:55.903Z,85.62
2023-04-06T20:37:26.565Z,84.29
2023-04-06T20:39:56.995Z,83.88
2023-04-06T20:42:27.512Z,84.16
2023-04-06T20:45:00.708Z,85.40
2023-04-06T20:47:31.498Z,85.03
2023-04-06T20:50:02.436Z,85.03
2023-04-06T20:52:40.858Z,85.03
2023-04-06T20:55:11.946Z,85.03
2023-04-06T20:57:45.129Z,86.20
2023-04-06T21:00:16.357Z,85.50
2023-04-06T21:02:47.656Z,86.88
2023-04-06T21:05:19.294Z,86.60
2023-04-06T21:07:49.774Z,86.13
2023-04-06T21:10:21.615Z,86.34
2023-04-06T21:12:52.373Z,86.00
2023-04-06T21:15:23.027Z,85.79
2023-04-06T21:17:54.281Z,86.02
2023-04-06T21:20:27.540Z,86.20
2023-04-06T21:22:58.126Z,85.72
2023-04-06T21:25:28.858Z,85.96
2023-04-06T21:27:59.727Z,85.61
2023-04-06T21:30:30.884Z,86.45
2023-04-06T21:33:02.098Z,86.45
2023-04-06T21:35:33.505Z,85.61
2023-04-06T21:38:03.945Z,85.30
2023-04-06T21:40:34.899Z,85.30
2023-04-06T21:43:05.661Z,86.62
2023-04-06T21:45:36.210Z,87.03
2023-04-06T21:48:07.371Z,86.60
2023-04-06T21:50:39.842Z,88.76
2023-04-06T21:53:10.315Z,88.34
2023-04-06T21:55:45.549Z,86.99
2023-04-06T21:58:16.550Z,87.76
2023-04-06T22:00:50.972Z,88.87
2023-04-06T22:03:22.042Z,88.87
2023-04-06T22:05:53.170Z,89.28
2023-04-06T22:08:33.803Z,89.35
2023-04-06T22:10:55.944Z,88.61
2023-04-06T22:13:27.605Z,88.45
2023-04-06T22:15:59.682Z,88.45
2023-04-06T22:21:23.889Z,89.92
2023-04-06T22:23:54.655Z,88.87
2023-04-06T22:26:26.189Z,89.13
2023-04-06T22:28:57.124Z,88.47
2023-04-06T22:31:27.609Z,89.32
2023-04-06T22:33:58.112Z,89.30
2023-04-06T22:36:28.793Z,89.47
2023-04-06T22:38:59.913Z,89.44
2023-04-06T22:41:30.387Z,88.92
2023-04-06T22:44:00.693Z,89.31
2023-04-06T22:46:31.778Z,89.33
2023-04-06T22:49:04.795Z,89.04
2023-04-06T22:51:35.814Z,89.18
2023-04-06T22:57:31.295Z,89.25
2023-04-06T23:00:03.383Z,90.11
2023-04-06T23:02:34.632Z,90.27
2023-04-06T23:05:06.227Z,90.54
2023-04-06T23:07:36.871Z,88.01
2023-04-06T23:10:08.453Z,87.44
2023-04-06T23:12:40.142Z,87.44
2023-04-06T23:15:11.063Z,90.69
2023-04-06T23:17:42.213Z,90.97
2023-04-06T23:20:12.777Z,90.40
2023-04-06T23:22:43.345Z,89.85
2023-04-06T23:25:13.935Z,89.85
2023-04-06T23:27:44.439Z,89.70
2023-04-06T23:30:15.025Z,89.73
2023-04-06T23:32:48.970Z,90.07
2023-04-06T23:35:19.450Z,88.90
2023-04-06T23:37:51.163Z,89.87
2023-04-06T23:40:22.043Z,89.87
2023-04-06T23:42:54.564Z,91.56
2023-04-06T23:45:25.150Z,90.33
2023-04-06T23:47:56.259Z,89.56
2023-04-06T23:50:26.751Z,89.54
2023-04-06T23:52:57.191Z,89.82
2023-04-06T23:55:27.675Z,89.87
2023-04-06T23:57:58.408Z,89.72
